Time;durP1;ratioP1;P1;durP2;ratioP2;P2;SDS_P1;SDS_P2;PMS_P1;PMS_P2;Temp;Humidity;BMP_temperature;BMP_pressure;BME280_temperature;BME280_humidity;BME280_pressure;Samples;Min_cycle;Max_cycle;Signal;HPM_P1;HPM_P2
2024/01/24 22:51:22;;;;;;;;;;;;;;;11.18;62.11;101044.00;1083425;54;1705;-75
2024/01/24 22:52:22;;;;;;;;;;;;;;;11.26;62.20;101048.75;1084547;46;1649;-77
2024/01/24 22:53:26;;;;;;;;;;;;;;;11.20;62.30;101044.75;1084402;36;1090;-75
2024/01/24 22:54:27;;;;;;;;;;;;;;;11.22;62.36;101045.47;1084337;54;1849;-76
2024/01/24 22:55:30;;;;;;;;;;;;;;;11.24;62.09;101046.22;1084153;46;1118;-76
2024/01/24 22:56:31;;;;;;;;;;;;;;;11.15;62.47;101050.47;1084265;46;1076;-75
2024/01/24 22:57:35;;;;;;;;;;;;;;;11.13;62.52;101044.38;1084529;54;1342;-77
2024/01/24 22:58:35;;;;;;;;;;;;;;;11.14;62.78;101050.59;1084592;46;1419;-75
2024/01/24 22:59:36;;;;;;;;;;;;;;;11.05;62.88;101047.66;1084545;54;1375;-79
2024/01/24 23:00:39;;;;;;;;;;;;;;;11.06;63.05;101051.22;1084353;46;997;-74
2024/01/24 23:01:41;;;;;;;;;;;;;;;11.07;62.96;101047.56;1084500;46;1048;-76
2024/01/24 23:02:45;;;;;;;;;;;;;;;11.07;63.05;101044.91;1084265;54;1073;-76
2024/01/24 23:03:45;;;;;;;;;;;;;;;11.12;62.80;101044.53;1084387;47;1188;-77
2024/01/24 23:04:49;;;;;;;;;;;;;;;11.18;62.86;101049.38;1084439;54;1141;-75
2024/01/24 23:05:50;;;;;;;;;;;;;;;11.22;62.47;101040.13;1084573;54;1080;-76
2024/01/24 23:06:56;;;;;;;;;;;;;;;11.19;62.55;101043.88;1084557;54;1124;-75
2024/01/24 23:07:57;;;;;;;;;;;;;;;11.14;62.59;101039.91;1084641;46;1129;-76
2024/01/24 23:09:01;;;;;;;;;;;;;;;11.16;62.76;101040.59;1084428;46;1142;-78
2024/01/24 23:10:01;;;;;;;;;;;;;;;11.15;63.04;101049.59;1084478;54;1387;-75
2024/01/24 23:11:05;;;;;;;;;;;;;;;11.12;62.76;101044.53;1084769;54;1378;-76
2024/01/24 23:12:07;;;;;;;;;;;;;;;11.14;62.85;101038.06;1084568;54;1434;-77
2024/01/24 23:13:10;;;;;;;;;;;;;;;11.20;62.93;101042.91;1084543;47;1069;-75
2024/01/24 23:14:11;;;;;;;;;;;;;;;11.26;62.49;101041.56;1084827;54;1168;-78
2024/01/24 23:15:14;;;;;;;;;;;;;;;11.33;62.77;101039.25;1084068;46;1908;-76
2024/01/24 23:16:15;;;;;;;;;;;;;;;11.30;62.66;101051.06;1084618;47;1026;-78
2024/01/24 23:17:18;;;;;;;;;;;;;;;11.18;62.90;101047.56;1084239;54;1009;-77
2024/01/24 23:18:19;;;;;;;;;;;;;;;10.97;63.54;101050.13;1084933;46;1069;-74
2024/01/24 23:19:22;;;;;;;;;;;;;;;10.80;63.99;101045.28;1084389;54;1260;-76
2024/01/24 23:20:23;;;;;;;;;;;;;;;11.00;63.83;101049.03;1084734;54;1231;-78
2024/01/24 23:21:26;;;;;;;;;;;;;;;11.09;63.25;101053.66;1084384;46;1139;-76
2024/01/24 23:22:29;;;;;;;;;;;;;;;11.16;63.26;101057.53;1084381;36;1024;-77
2024/01/24 23:23:32;;;;;;;;;;;;;;;11.25;62.83;101061.28;1084721;47;1988;-75
2024/01/24 23:24:33;;;;;;;;;;;;;;;11.33;62.95;101063.34;1084619;54;1184;-76
2024/01/24 23:25:36;;;;;;;;;;;;;;;11.32;62.95;101062.50;1084369;54;1049;-76
2024/01/24 23:26:37;;;;;;;;;;;;;;;11.36;62.57;101063.09;1084537;46;1144;-76
2024/01/24 23:27:40;;;;;;;;;;;;;;;11.27;62.88;101064.69;1084617;47;1155;-77
2024/01/24 23:28:41;;;;;;;;;;;;;;;11.28;62.60;101066.38;1084390;54;1473;-78
2024/01/24 23:29:44;;;;;;;;;;;;;;;11.35;62.79;101064.91;1121615;36;12306;-78
2024/01/24 23:30:45;;;;;;;;;;;;;;;11.32;62.61;101064.31;1120679;36;12599;-77
2024/01/24 23:31:48;;;;;;;;;;;;;;;11.35;62.50;101067.59;1084872;36;12238;-77
2024/01/24 23:32:49;;;;;;;;;;;;;;;11.32;62.81;101066.97;1293807;36;10712;-77
2024/01/24 23:33:52;;;;;;;;;;;;;;;11.28;62.91;101066.38;1448098;36;5464;-75
2024/01/24 23:34:53;;;;;;;;;;;;;;;11.28;62.86;101065.56;1456599;36;5718;-77
2024/01/24 23:35:56;;;;;;;;;;;;;;;11.30;62.79;101069.78;1451870;36;5607;-78
2024/01/24 23:36:56;;;;;;;;;;;;;;;11.34;62.58;101059.69;1454331;36;5621;-76
2024/01/24 23:38:02;;;;;;;;;;;;;;;11.30;62.73;101059.09;1457641;36;5989;-75
2024/01/24 23:39:03;;;;;;;;;;;;;;;11.28;62.77;101054.84;1458501;36;6015;-77
2024/01/24 23:40:07;;;;;;;;;;;;;;;11.30;63.02;101056.41;1441687;36;5871;-77
2024/01/24 23:41:08;;;;;;;;;;;;;;;11.29;62.94;101056.53;1457813;36;5923;-76
2024/01/24 23:42:12;;;;;;;;;;;;;;;11.24;63.06;101056.91;1434467;36;5809;-75
2024/01/24 23:43:13;;;;;;;;;;;;;;;11.26;62.96;101057.63;1442958;36;5887;-76
2024/01/24 23:44:16;;;;;;;;;;;;;;;11.14;63.07;101062.16;1454149;36;5328;-77
2024/01/24 23:45:17;;;;;;;;;;;;;;;10.98;63.70;101070.56;1450150;36;6214;-76
2024/01/24 23:46:20;;;;;;;;;;;;;;;10.98;63.57;101062.53;1433741;36;6220;-76
2024/01/24 23:47:21;;;;;;;;;;;;;;;11.04;63.36;101064.72;1448015;36;5780;-76
2024/01/24 23:48:24;;;;;;;;;;;;;;;11.02;63.38;101064.00;1437043;36;5579;-76
2024/01/24 23:49:24;;;;;;;;;;;;;;;11.13;63.23;101063.13;1454083;36;5769;-75
2024/01/24 23:50:28;;;;;;;;;;;;;;;11.10;63.10;101075.91;1450092;36;5765;-76
2024/01/24 23:51:29;;;;;;;;;;;;;;;11.11;63.36;101065.06;1048016;36;2005545;-75
2024/01/24 23:52:32;;;;;;;;;;;;;;;11.07;63.46;101069.81;1082609;47;1494;-77
2024/01/24 23:53:35;;;;;;;;;;;;;;;11.12;63.22;101072.13;1082839;36;1528;-75
2024/01/24 23:54:38;;;;;;;;;;;;;;;11.15;63.21;101071.00;1082859;54;1923;-77
2024/01/24 23:55:39;;;;;;;;;;;;;;;11.00;63.61;101075.81;1082495;54;1620;-77
2024/01/24 23:56:42;;;;;;;;;;;;;;;11.03;63.51;101079.09;1082864;54;1432;-77
2024/01/24 23:57:43;;;;;;;;;;;;;;;10.95;63.77;101069.94;1082696;54;1069;-75
2024/01/24 23:58:46;;;;;;;;;;;;;;;11.08;63.57;101070.69;1081553;36;1005147;-76
2024/01/24 23:59:48;;;;;;;;;;;;;;;11.17;62.92;101069.06;1082632;47;1412;-75
